^^
Station Historical Data
Daily Summary for June 4, 2017 Units:  Metric    English   Both
« Previous Day
Next Day »
Daily Weekly Monthly Yearly Custom
  High: Low: Average:
Temperature: 23.8 °C 8.8 °C 15.4 °C
Dew Point: 11 °C 5.3 °C 8.4 °C
Humidity: 95% 33% 68%
Wind Speed: 19.5km/h 0km/h 2.3km/h
Wind Gust: 22.5km/h - -
Wind- - West
Pressure: 1019.2 hPa 1015.5 hPa -
Precipitation: 0 mm    
Historical Graphs
 
 
Tabular Data for June 4, 2017
Time Temperature Dew Point Pressure Wind Wind Speed Wind Gust Humidity Rainfall Rate (Hourly) solar Conditions
00:00 13.4 °C 9.8 °C 1015.8 hPa Calm     79% 0 mm 0.0 W/m2
00:05 13.2 °C 9.6 °C 1015.8 hPa Calm     79% 0 mm 0.0 W/m2
00:16 12.9 °C 9.3 °C 1015.8 hPa Calm     79% 0 mm 0.0 W/m2
00:21 12.8 °C 9.4 °C 1015.8 hPa Calm     80% 0 mm 0.0 W/m2
00:26 12.7 °C 9.5 °C 1015.8 hPa Calm     81% 0 mm 0.0 W/m2
00:31 12.7 °C 9.7 °C 1015.8 hPa Calm     82% 0 mm 0.0 W/m2
00:36 12.8 °C 9.8 °C 1015.8 hPa Calm     82% 0 mm 0.0 W/m2
00:42 12.7 °C 9.5 °C 1015.8 hPa Calm     81% 0 mm 0.0 W/m2
00:47 12.6 °C 9.6 °C 1015.5 hPa Calm     82% 0 mm 0.0 W/m2
00:52 12.5 °C 9.7 °C 1015.5 hPa Calm     83% 0 mm 0.0 W/m2
00:57 12.4 °C 9.6 °C 1015.5 hPa Calm     83% 0 mm 0.0 W/m2
01:02 12.3 °C 9.1 °C 1015.8 hPa Calm     81% 0 mm 0.0 W/m2
01:12 11.9 °C 8.9 °C 1015.8 hPa Calm     82% 0 mm 0.0 W/m2
01:17 11.8 °C 8.8 °C 1015.8 hPa Calm     82% 0 mm 0.0 W/m2
01:22 11.8 °C 9.2 °C 1015.8 hPa Calm     84% 0 mm 0.0 W/m2
01:27 11.6 °C 8.5 °C 1016.1 hPa Calm     81% 0 mm 0.0 W/m2
01:32 11.3 °C 8.3 °C 1015.8 hPa Calm     82% 0 mm 0.0 W/m2
01:38 11 °C 8.2 °C 1015.8 hPa Calm     83% 0 mm 0.0 W/m2
01:43 10.9 °C 8.3 °C 1016.1 hPa Calm     84% 0 mm 0.0 W/m2
01:49 10.7 °C 8.1 °C 1016.1 hPa Calm     84% 0 mm 0.0 W/m2
01:54 10.6 °C 8.2 °C 1016.1 hPa Calm     85% 0 mm 0.0 W/m2
01:59 10.9 °C 9 °C 1016.1 hPa West 6.4 km/h 11.3 km/h 88% 0 mm 0.0 W/m2
02:04 11.3 °C 9.4 °C 1016.1 hPa West 9.7 km/h 11.3 km/h 88% 0 mm 0.0 W/m2
02:09 11.6 °C 9.5 °C 1016.1 hPa West 9.7 km/h 11.3 km/h 87% 0 mm 0.0 W/m2
02:14 11.6 °C 9.3 °C 1016.1 hPa West 11.1 km/h 11.3 km/h 86% 0 mm 0.0 W/m2
02:24 11.7 °C 9.4 °C 1016.1 hPa West 6.4 km/h 8 km/h 86% 0 mm 0.0 W/m2
02:29 11.7 °C 9.6 °C 1016.1 hPa Calm   3.2 km/h 87% 0 mm 0.0 W/m2
02:34 11.7 °C 9.6 °C 1016.1 hPa Calm     87% 0 mm 0.0 W/m2
02:40 11.7 °C 9.8 °C 1016.1 hPa West 6.4 km/h 8 km/h 88% 0 mm 0.0 W/m2
02:50 11.7 °C 9.8 °C 1016.1 hPa West 4.7 km/h 8 km/h 88% 0 mm 0.0 W/m2
02:55 11.7 °C 9.8 °C 1016.1 hPa West 6.4 km/h 8 km/h 88% 0 mm 0.0 W/m2
03:00 11.7 °C 9.9 °C 1016.1 hPa West 4.7 km/h 6.4 km/h 89% 0 mm 0.0 W/m2
03:05 11.6 °C 9.7 °C 1016.1 hPa West 4.7 km/h 9.7 km/h 88% 0 mm 0.0 W/m2
03:10 11.6 °C 9.8 °C 1016.1 hPa Calm     89% 0 mm 0.0 W/m2
03:15 11.9 °C 10.3 °C 1016.1 hPa Calm     90% 0 mm 0.0 W/m2
03:20 12.1 °C 10.5 °C 1016.1 hPa Calm     90% 0 mm 0.0 W/m2
03:25 12.1 °C 10.3 °C 1016.1 hPa Calm     89% 0 mm 0.0 W/m2
03:31 12 °C 10.1 °C 1016.1 hPa Calm     88% 0 mm 0.0 W/m2
03:36 11.9 °C 10.1 °C 1016.5 hPa Calm     89% 0 mm 0.0 W/m2
03:41 11.9 °C 10.1 °C 1016.5 hPa Calm     89% 0 mm 0.0 W/m2
03:46 11.9 °C 10.1 °C 1016.5 hPa Calm     89% 0 mm 0.0 W/m2
03:51 11.8 °C 9.9 °C 1016.1 hPa Calm     88% 0 mm 0.0 W/m2
03:56 11.7 °C 9.9 °C 1016.1 hPa Calm     89% 0 mm 0.0 W/m2
04:01 11.6 °C 9.8 °C 1016.1 hPa Calm     89% 0 mm 0.0 W/m2
04:07 11.4 °C 9.7 °C 1016.5 hPa Calm     89% 0 mm 0.0 W/m2
04:13 11.4 °C 9.8 °C 1016.5 hPa Calm     90% 0 mm 0.0 W/m2
04:18 11.4 °C 9.8 °C 1016.5 hPa Calm     90% 0 mm 0.0 W/m2
04:28 11.3 °C 9.7 °C 1016.1 hPa Calm     90% 0 mm 0.0 W/m2
04:33 11.2 °C 9.5 °C 1016.5 hPa Calm     89% 0 mm 0.0 W/m2
04:38 11 °C 9.4 °C 1016.5 hPa Calm     90% 0 mm 0.0 W/m2
04:44 10.9 °C 9.3 °C 1016.5 hPa Calm     90% 0 mm 0.0 W/m2
04:49 10.8 °C 9.2 °C 1016.5 hPa Calm     90% 0 mm 0.0 W/m2
04:54 10.7 °C 9.1 °C 1016.5 hPa Calm     90% 0 mm 0.0 W/m2
04:59 10.5 °C 8.9 °C 1016.5 hPa Calm     90% 0 mm 0.0 W/m2
05:04 10.3 °C 8.7 °C 1016.5 hPa Calm     90% 0 mm 0.0 W/m2
05:10 10.2 °C 8.6 °C 1016.8 hPa Calm     90% 0 mm 0.0 W/m2
05:15 10 °C 8.4 °C 1016.8 hPa Calm     90% 0 mm 0.0 W/m2
05:21 9.9 °C 8.5 °C 1016.8 hPa Calm     91% 0 mm 0.0 W/m2
05:31 9.7 °C 8.3 °C 1016.8 hPa Calm     91% 0 mm 0.0 W/m2
05:36 9.6 °C 8.2 °C 1017.2 hPa Calm     91% 0 mm 0.0 W/m2
05:41 9.5 °C 8.3 °C 1017.2 hPa Calm     92% 0 mm 0.0 W/m2
05:46 9.6 °C 8.5 °C 1017.5 hPa Calm     93% 0 mm 0.0 W/m2
05:52 9.5 °C 8.3 °C 1017.5 hPa Calm     92% 0 mm 0.0 W/m2
05:57 9.3 °C 8.1 °C 1017.5 hPa Calm     92% 0 mm 0.0 W/m2
06:02 9.2 °C 8 °C 1017.5 hPa Calm     92% 0 mm 0.0 W/m2
06:07 9.2 °C 8 °C 1017.8 hPa Calm     92% 0 mm 0.0 W/m2
06:12 9.2 °C 8 °C 1017.8 hPa Calm     92% 0 mm 0.0 W/m2
06:17 9.1 °C 7.9 °C 1017.8 hPa Calm     92% 0 mm 0.0 W/m2
06:23 9.1 °C 7.9 °C 1017.8 hPa Calm     92% 0 mm 0.0 W/m2
06:34 8.9 °C 7.8 °C 1017.8 hPa Calm     93% 0 mm 0.0 W/m2
06:44 8.8 °C 7.7 °C 1018.2 hPa Calm     93% 0 mm 11.0 W/m2
06:49 8.8 °C 7.7 °C 1018.2 hPa Calm     93% 0 mm 14.0 W/m2
06:54 8.8 °C 7.9 °C 1018.2 hPa Calm     94% 0 mm 18.0 W/m2
06:59 8.9 °C 8 °C 1018.2 hPa Calm     94% 0 mm 19.0 W/m2
07:09 8.8 °C 7.9 °C 1018.2 hPa Calm     94% 0 mm 28.0 W/m2
07:14 8.9 °C 8 °C 1018.2 hPa Calm     94% 0 mm 32.0 W/m2
07:20 9.1 °C 8.2 °C 1018.2 hPa Calm     94% 0 mm 67.0 W/m2
07:25 9.3 °C 8.5 °C 1018.5 hPa Calm     95% 0 mm 93.0 W/m2
07:35 9.9 °C 9.1 °C 1018.5 hPa Calm     95% 0 mm 125.0 W/m2
07:40 10.3 °C 9.5 °C 1018.5 hPa Calm     95% 0 mm 144.0 W/m2
07:45 10.6 °C 9.8 °C 1018.5 hPa Calm     95% 0 mm 160.0 W/m2
07:50 10.8 °C 10 °C 1018.5 hPa Calm     95% 0 mm 178.0 W/m2
07:56 10.9 °C 10 °C 1018.5 hPa Calm     94% 0 mm 195.0 W/m2
08:01 11.2 °C 10.3 °C 1018.5 hPa Calm     94% 0 mm 213.0 W/m2
08:11 11.7 °C 10.6 °C 1018.8 hPa Calm     93% 0 mm 248.0 W/m2
08:17 12 °C 10.7 °C 1018.8 hPa Calm     92% 0 mm 267.0 W/m2
08:26 12.7 °C 10.9 °C 1018.8 hPa West 11.1 km/h 11.3 km/h 89% 0 mm 295.0 W/m2
08:31 12.9 °C 10.8 °C 1018.8 hPa West 13 km/h 14.5 km/h 87% 0 mm 309.0 W/m2
08:40 13.2 °C 10.9 °C 1019.2 hPa West 11.1 km/h 14.5 km/h 86% 0 mm 322.0 W/m2
08:46 13.6 °C 10.9 °C 1019.2 hPa West 13 km/h 13 km/h 84% 0 mm 346.0 W/m2
09:01 13.9 °C 10.9 °C 1019.2 hPa West 7.9 km/h 12.9 km/h 82% 0 mm 383.0 W/m2
09:22 14.8 °C 11 °C 1019.2 hPa West 9.7 km/h 12.9 km/h 78% 0 mm 422.0 W/m2
09:34 15.2 °C 11 °C 1019.2 hPa West 6.4 km/h 11.3 km/h 76% 0 mm 457.0 W/m2
11:00 18.7 °C 10.5 °C 1018.8 hPa Calm     59% 0 mm 582.0 W/m2
11:05 18.9 °C 10.5 °C 1018.8 hPa Calm     58% 0 mm 587.0 W/m2
11:10 19 °C 10.3 °C 1018.8 hPa Calm     57% 0 mm 589.0 W/m2
11:20 19.7 °C 10.1 °C 1018.5 hPa Calm     54% 0 mm 592.0 W/m2
11:29 20.3 °C 9.8 °C 1018.5 hPa Calm     51% 0 mm 596.0 W/m2
11:37 20.4 °C 9.3 °C 1018.2 hPa Calm     49% 0 mm 598.0 W/m2
12:05 21.7 °C 8.6 °C 1017.8 hPa Calm     43% 0 mm 596.0 W/m2
12:13 21.8 °C 8 °C 1017.8 hPa Calm     41% 0 mm 591.0 W/m2
12:21 22 °C 8.1 °C 1017.8 hPa Calm     41% 0 mm 584.0 W/m2
12:32 22.3 °C 8 °C 1017.5 hPa Calm     40% 0 mm 578.0 W/m2
12:42 22.6 °C 7.9 °C 1017.5 hPa Calm     39% 0 mm 570.0 W/m2
12:52 22.8 °C 7.7 °C 1017.5 hPa Calm     38% 0 mm 561.0 W/m2
12:58 22.9 °C 7.4 °C 1017.2 hPa Calm     37% 0 mm 552.0 W/m2
13:07 23.3 °C 7.4 °C 1017.2 hPa Calm     36% 0 mm 540.0 W/m2
13:12 23.4 °C 7.5 °C 1017.2 hPa Calm     36% 0 mm 533.0 W/m2
13:18 23.5 °C 7.6 °C 1017.2 hPa Calm     36% 0 mm 526.0 W/m2
13:23 23.6 °C 7.7 °C 1016.8 hPa Calm     36% 0 mm 522.0 W/m2
13:28 23.4 °C 7.5 °C 1016.8 hPa Calm     36% 0 mm 513.0 W/m2
13:34 23.2 °C 7.3 °C 1016.8 hPa Calm   4.8 km/h 36% 0 mm 504.0 W/m2
13:44 23.1 °C 7.2 °C 1016.8 hPa Calm     36% 0 mm 485.0 W/m2
13:49 23.1 °C 6.8 °C 1016.8 hPa Calm     35% 0 mm 478.0 W/m2
13:55 23.1 °C 6.8 °C 1016.8 hPa Calm   1.6 km/h 35% 0 mm 471.0 W/m2
14:05 23.2 °C 6.5 °C 1016.8 hPa Calm   6.4 km/h 34% 0 mm 450.0 W/m2
14:14 23.7 °C 6.5 °C 1016.8 hPa Calm     33% 0 mm 425.0 W/m2
14:24 23.8 °C 7.4 °C 1016.8 hPa West 3.2 km/h 8 km/h 35% 0 mm 399.0 W/m2
14:35 23.3 °C 8.6 °C 1016.8 hPa West 7.9 km/h 12.9 km/h 39% 0 mm 376.0 W/m2
14:44 22.9 °C 8.6 °C 1016.8 hPa West 7.9 km/h 8 km/h 40% 0 mm 350.0 W/m2
14:50 22.9 °C 8.6 °C 1016.8 hPa Calm   6.4 km/h 40% 0 mm 339.0 W/m2
14:56 22.9 °C 8.6 °C 1016.8 hPa Calm   8 km/h 40% 0 mm 325.0 W/m2
15:10 23.1 °C 8.4 °C 1016.8 hPa West 11.1 km/h 11.3 km/h 39% 0 mm 285.0 W/m2
15:20 23.1 °C 8 °C 1016.8 hPa West 7.9 km/h 17.7 km/h 38% 0 mm 258.0 W/m2
15:26 23.1 °C 8 °C 1016.8 hPa West 9.7 km/h 14.5 km/h 38% 0 mm 241.0 W/m2
15:35 22.9 °C 7.8 °C 1016.8 hPa West 13 km/h 19.3 km/h 38% 0 mm 213.0 W/m2
15:40 22.8 °C 7.7 °C 1016.8 hPa West 19.5 km/h 20.9 km/h 38% 0 mm 193.0 W/m2
15:50 22.6 °C 7.9 °C 1017.2 hPa West 19.5 km/h 22.5 km/h 39% 0 mm 155.0 W/m2
15:55 22.4 °C 8.1 °C 1017.2 hPa West 17.7 km/h 17.7 km/h 40% 0 mm 139.0 W/m2
16:05 21.9 °C 8.8 °C 1017.2 hPa West 14.3 km/h 20.9 km/h 43% 0 mm 104.0 W/m2
16:10 21.8 °C 8.7 °C 1017.5 hPa West 14.3 km/h 19.3 km/h 43% 0 mm 91.0 W/m2
16:15 21.7 °C 8.9 °C 1017.5 hPa West 14.3 km/h 19.3 km/h 44% 0 mm 76.0 W/m2
16:20 21.7 °C 8.9 °C 1017.5 hPa West 14.3 km/h 16.1 km/h 44% 0 mm 62.0 W/m2
16:25 21.5 °C 8.7 °C 1017.2 hPa West 16.3 km/h 17.7 km/h 44% 0 mm 49.0 W/m2
16:30 21.4 °C 9 °C 1017.5 hPa West 9.7 km/h 17.7 km/h 45% 0 mm 37.0 W/m2
16:35 21.3 °C 8.9 °C 1017.2 hPa West 13 km/h 16.1 km/h 45% 0 mm 26.0 W/m2
16:40 21.2 °C 8.8 °C 1017.5 hPa West 11.1 km/h 12.9 km/h 45% 0 mm 16.0 W/m2
16:45 21.1 °C 8.7 °C 1017.5 hPa West 13 km/h 13 km/h 45% 0 mm 14.0 W/m2
16:50 21 °C 8.9 °C 1017.5 hPa West 7.9 km/h 9.7 km/h 46% 0 mm 11.0 W/m2
17:02 20.7 °C 8.7 °C 1017.5 hPa West 4.7 km/h 8 km/h 46% 0 mm 5.0 W/m2
17:08 20.5 °C 8.5 °C 1017.5 hPa West 4.7 km/h 6.4 km/h 46% 0 mm 0.0 W/m2
17:19 20 °C 8.7 °C 1017.5 hPa West 4.7 km/h 8 km/h 48% 0 mm 0.0 W/m2
17:29 19.6 °C 8.6 °C 1017.5 hPa Calm   4.8 km/h 49% 0 mm 0.0 W/m2
17:48 19.1 °C 8.4 °C 1017.5 hPa Calm     50% 0 mm 0.0 W/m2
18:01 18.9 °C 8.2 °C 1017.8 hPa Calm     50% 0 mm 0.0 W/m2
18:18 18.7 °C 8.1 °C 1017.8 hPa Calm     50% 0 mm 0.0 W/m2
18:25 18.6 °C 8 °C 1017.8 hPa Calm     50% 0 mm 0.0 W/m2
18:37 18 °C 7.7 °C 1017.8 hPa Calm     51% 0 mm 0.0 W/m2
18:54 17.3 °C 7.3 °C 1018.2 hPa Calm     52% 0 mm 0.0 W/m2
19:27 16.7 °C 7.3 °C 1018.2 hPa Calm     54% 0 mm 0.0 W/m2
19:57 15.9 °C 6.6 °C 1018.2 hPa Calm     54% 0 mm 0.0 W/m2
20:12 15.3 °C 7.1 °C 1018.5 hPa Calm     58% 0 mm 0.0 W/m2
20:26 15.1 °C 6.6 °C 1018.5 hPa Calm     57% 0 mm 0.0 W/m2
21:25 18.3 °C 6.5 °C 1018.5 hPa Calm     46% 0 mm 0.0 W/m2
21:36 18.1 °C 6.6 °C 1018.5 hPa Calm     47% 0 mm 0.0 W/m2
21:45 18.1 °C 6.3 °C 1018.5 hPa Calm     46% 0 mm 0.0 W/m2
21:50 18 °C 6.5 °C 1018.5 hPa Calm     47% 0 mm 0.0 W/m2
22:01 17.6 °C 6.2 °C 1018.5 hPa Calm     47% 0 mm 0.0 W/m2
22:09 16.9 °C 6.1 °C 1018.5 hPa Calm     49% 0 mm 0.0 W/m2
22:19 17.1 °C 6.3 °C 1018.5 hPa Calm     49% 0 mm 0.0 W/m2
22:25 17.2 °C 6.1 °C 1018.2 hPa Calm     48% 0 mm 0.0 W/m2
22:35 16.6 °C 5.8 °C 1018.2 hPa Calm     49% 0 mm 0.0 W/m2
22:40 16.3 °C 5.6 °C 1018.2 hPa Calm     49% 0 mm 0.0 W/m2
22:45 16.1 °C 5.7 °C 1018.2 hPa Calm     50% 0 mm 0.0 W/m2
22:50 16 °C 5.6 °C 1018.2 hPa Calm     50% 0 mm 0.0 W/m2
22:55 15.9 °C 5.5 °C 1018.2 hPa Calm     50% 0 mm 0.0 W/m2
23:01 16.1 °C 5.7 °C 1017.8 hPa Calm     50% 0 mm 0.0 W/m2
23:06 16.1 °C 5.7 °C 1017.8 hPa Calm     50% 0 mm 0.0 W/m2
23:11 16.4 °C 5.7 °C 1017.8 hPa Calm     49% 0 mm 0.0 W/m2
23:16 16.7 °C 5.6 °C 1017.8 hPa Calm     48% 0 mm 0.0 W/m2
23:21 16.7 °C 5.3 °C 1017.8 hPa Calm     47% 0 mm 0.0 W/m2
23:26 16.7 °C 5.6 °C 1017.8 hPa Calm     48% 0 mm 0.0 W/m2
23:31 16.8 °C 5.4 °C 1017.8 hPa Calm     47% 0 mm 0.0 W/m2
23:36 16.9 °C 5.5 °C 1017.8 hPa Calm     47% 0 mm 0.0 W/m2
23:41 17.1 °C 5.4 °C 1017.5 hPa Calm   3.2 km/h 46% 0 mm 0.0 W/m2
23:46 17.3 °C 5.6 °C 1017.8 hPa West 6.4 km/h 6.4 km/h 46% 0 mm 0.0 W/m2
23:52 17.4 °C 5.3 °C 1017.8 hPa Calm   6.4 km/h 45% 0 mm 0.0 W/m2
23:57 17.3 °C 5.3 °C 1017.8 hPa West 3.2 km/h 9.7 km/h 45% 0 mm 0.0 W/m2
Canyon Roadhouse, Fishriver Canyon, Namibia
Compliments of Weather Underground - 2.5 mb